createdAt,value
2023-03-24T00:00:00.821Z,2.90
2023-03-24T00:02:31.458Z,3.50
2023-03-24T00:05:01.816Z,3.15
2023-03-24T00:07:35.422Z,3.50
2023-03-24T00:10:10.711Z,3.50
2023-03-24T00:12:42.809Z,3.33
2023-03-24T00:15:17.249Z,3.20
2023-03-24T00:17:50.541Z,3.47
2023-03-24T00:20:23.380Z,3.13
2023-03-24T00:22:57.267Z,2.90
2023-03-24T00:25:36.287Z,3.17
2023-03-24T00:28:08.054Z,3.15
2023-03-24T00:30:38.798Z,3.10
2023-03-24T00:33:10.037Z,3.20
2023-03-24T00:35:40.107Z,3.22
2023-03-24T00:38:10.573Z,3.25
2023-03-24T00:40:48.662Z,3.00
2023-03-24T00:43:19.327Z,3.13
2023-03-24T00:45:49.551Z,3.13
2023-03-24T00:48:24.344Z,3.22
2023-03-24T00:50:55.104Z,3.45
2023-03-24T00:53:25.998Z,3.30
2023-03-24T00:56:00.166Z,3.10
2023-03-24T00:58:34.587Z,3.30
2023-03-24T01:01:06.721Z,3.10
2023-03-24T01:03:48.526Z,3.20
2023-03-24T01:06:18.582Z,3.40
2023-03-24T01:08:49.447Z,3.38
2023-03-24T01:11:22.959Z,3.30
2023-03-24T01:13:54.506Z,3.35
2023-03-24T01:16:26.010Z,3.28
2023-03-24T01:18:56.391Z,3.47
2023-03-24T01:21:26.454Z,3.50
2023-03-24T01:23:58.077Z,3.05
2023-03-24T01:26:31.071Z,3.22
2023-03-24T01:29:01.315Z,3.13
2023-03-24T01:31:31.815Z,3.00
2023-03-24T01:34:01.916Z,3.03
2023-03-24T01:36:32.082Z,3.08
2023-03-24T01:39:02.247Z,2.80
2023-03-24T01:41:41.007Z,3.33
2023-03-24T01:44:29.980Z,3.17
2023-03-24T01:47:00.933Z,3.20
2023-03-24T01:49:35.978Z,2.88
2023-03-24T01:52:11.809Z,3.17
2023-03-24T01:54:46.222Z,3.47
2023-03-24T01:57:25.529Z,3.17
2023-03-24T02:00:00.200Z,3.33
2023-03-24T02:05:09.864Z,3.65
2023-03-24T02:07:44.742Z,3.10
2023-03-24T02:10:21.053Z,3.65
2023-03-24T02:12:53.763Z,3.03
2023-03-24T02:15:29.670Z,2.97
2023-03-24T02:18:09.897Z,3.30
2023-03-24T02:21:20.649Z,3.42
2023-03-24T02:24:41.653Z,3.10
2023-03-24T02:27:30.136Z,3.63
2023-03-24T02:30:26.679Z,3.38
2023-03-24T02:33:49.984Z,3.65
2023-03-24T02:37:02.299Z,3.22
2023-03-24T02:40:10.833Z,3.55
2023-03-24T02:42:56.449Z,3.50
2023-03-24T02:45:38.113Z,3.67
2023-03-24T02:48:25.195Z,3.63
2023-03-24T02:51:07.377Z,3.88
2023-03-24T02:53:50.465Z,3.70
2023-03-24T02:56:30.257Z,3.25
2023-03-24T02:59:06.691Z,3.72
2023-03-24T03:01:44.189Z,3.35
2023-03-24T03:04:19.771Z,3.67
2023-03-24T03:06:56.852Z,3.90
2023-03-24T03:09:28.537Z,3.10
2023-03-24T03:12:03.333Z,2.88
2023-03-24T03:14:39.433Z,3.15
2023-03-24T03:17:14.704Z,3.40
2023-03-24T03:19:50.521Z,3.35
2023-03-24T03:22:25.828Z,3.67
2023-03-24T03:25:01.357Z,3.47
2023-03-24T03:27:39.581Z,3.30
2023-03-24T03:30:18.580Z,3.55
2023-03-24T03:32:54.792Z,3.88
2023-03-24T03:35:32.684Z,3.83
2023-03-24T03:38:14.187Z,3.60
2023-03-24T03:40:52.738Z,3.63
2023-03-24T03:43:26.347Z,3.72
2023-03-24T03:45:56.684Z,3.72
2023-03-24T03:48:27.423Z,3.40
2023-03-24T03:51:10.749Z,3.60
2023-03-24T03:53:51.876Z,3.80
2023-03-24T03:56:25.987Z,3.70
2023-03-24T03:58:58.790Z,3.80
2023-03-24T04:01:34.384Z,3.80
2023-03-24T04:04:59.600Z,3.60
2023-03-24T04:07:47.615Z,3.45
2023-03-24T04:10:27.018Z,3.83
2023-03-24T04:13:17.459Z,4.32
2023-03-24T04:15:57.779Z,3.95
2023-03-24T04:18:57.382Z,4.22
2023-03-24T04:21:56.532Z,4.10
2023-03-24T04:24:42.751Z,4.25
2023-03-24T04:27:27.416Z,4.30
2023-03-24T04:30:09.536Z,4.32
2023-03-24T04:32:47.797Z,4.60
2023-03-24T04:35:32.135Z,4.40
2023-03-24T04:38:07.387Z,4.90
2023-03-24T04:40:42.196Z,5.00
2023-03-24T04:43:18.099Z,3.75
2023-03-24T04:45:50.081Z,4.70
2023-03-24T04:48:24.004Z,4.47
2023-03-24T04:50:59.007Z,4.53
2023-03-24T04:53:29.944Z,4.53
2023-03-24T04:56:11.215Z,5.10
2023-03-24T04:58:41.779Z,4.80
2023-03-24T05:01:11.844Z,5.72
2023-03-24T05:03:46.103Z,4.72
2023-03-24T05:06:17.076Z,3.97
2023-03-24T05:08:50.109Z,4.78
2023-03-24T05:11:20.117Z,5.70
2023-03-24T05:13:50.277Z,5.28
2023-03-24T05:16:20.741Z,5.50
2023-03-24T05:18:53.488Z,5.65
2023-03-24T05:21:23.567Z,5.90
2023-03-24T05:23:53.793Z,5.72
2023-03-24T05:26:23.859Z,6.10
2023-03-24T05:28:54.142Z,6.03
2023-03-24T05:31:24.253Z,6.57
2023-03-24T05:33:57.084Z,6.25
2023-03-24T05:36:27.301Z,5.70
2023-03-24T05:38:57.408Z,5.43
2023-03-24T05:41:27.532Z,5.78
2023-03-24T05:43:57.588Z,6.07
2023-03-24T05:46:28.241Z,6.50
2023-03-24T05:49:00.921Z,5.55
2023-03-24T05:51:31.044Z,5.60
2023-03-24T05:54:01.183Z,5.97
2023-03-24T05:56:32.889Z,5.35
2023-03-24T05:59:03.527Z,5.20
2023-03-24T06:01:33.628Z,6.20
2023-03-24T06:04:06.629Z,4.63
2023-03-24T06:06:38.512Z,4.82
2023-03-24T06:09:08.948Z,4.93
2023-03-24T06:11:38.955Z,4.72
2023-03-24T06:14:09.087Z,3.85
2023-03-24T06:16:41.379Z,4.82
2023-03-24T06:19:14.095Z,4.93
2023-03-24T06:21:44.842Z,3.13
2023-03-24T06:24:15.217Z,3.70
2023-03-24T06:26:45.261Z,4.50
2023-03-24T06:29:18.084Z,3.58
2023-03-24T06:31:48.269Z,2.85
2023-03-24T06:34:22.368Z,1.73
2023-03-24T06:36:52.495Z,3.70
2023-03-24T06:39:24.046Z,3.15
2023-03-24T06:41:54.142Z,3.10
2023-03-24T06:44:24.251Z,3.58
2023-03-24T06:46:54.368Z,2.88
2023-03-24T06:49:30.160Z,3.13
2023-03-24T06:52:00.303Z,3.53
2023-03-24T06:54:30.844Z,3.10
2023-03-24T06:57:01.301Z,2.85
2023-03-24T06:59:31.517Z,3.42
2023-03-24T07:02:01.674Z,3.95
2023-03-24T07:04:36.712Z,3.33
2023-03-24T07:07:34.168Z,3.55
2023-03-24T07:09:57.294Z,3.50
2023-03-24T07:12:27.396Z,3.33
2023-03-24T07:14:58.100Z,3.47
2023-03-24T07:17:28.308Z,2.28
2023-03-24T07:20:01.036Z,3.78
2023-03-24T07:22:31.116Z,4.43
2023-03-24T07:25:04.709Z,4.40
2023-03-24T07:27:35.430Z,4.28
2023-03-24T07:30:05.968Z,4.22
2023-03-24T07:32:39.377Z,4.45
2023-03-24T07:35:16.598Z,4.97
2023-03-24T07:37:47.012Z,3.92
2023-03-24T07:40:18.027Z,4.13
2023-03-24T07:42:48.097Z,3.90
2023-03-24T07:45:18.352Z,3.97
2023-03-24T07:47:49.511Z,3.20
2023-03-24T07:50:22.522Z,4.22
2023-03-24T07:52:53.754Z,3.30
2023-03-24T07:55:24.138Z,2.25
2023-03-24T07:57:54.512Z,4.07
2023-03-24T08:00:26.068Z,3.55
2023-03-24T08:02:56.889Z,2.03
2023-03-24T08:05:32.858Z,3.42
2023-03-24T08:08:06.898Z,3.08
2023-03-24T08:10:37.180Z,3.28
2023-03-24T08:13:07.496Z,3.03
2023-03-24T08:15:38.095Z,1.73
2023-03-24T08:18:08.305Z,3.25
2023-03-24T08:20:40.981Z,3.08
2023-03-24T08:23:11.346Z,3.20
2023-03-24T08:25:42.787Z,1.85
2023-03-24T08:28:13.408Z,2.95
2023-03-24T08:30:43.919Z,3.70
2023-03-24T08:33:16.460Z,3.50
2023-03-24T08:35:49.318Z,3.63
2023-03-24T08:38:23.364Z,2.47
2023-03-24T08:40:54.996Z,2.45
2023-03-24T08:43:25.581Z,2.33
2023-03-24T08:45:55.814Z,3.60
2023-03-24T08:48:25.861Z,2.63
2023-03-24T08:50:59.157Z,3.55
2023-03-24T08:53:29.173Z,2.95
2023-03-24T08:55:59.240Z,3.35
2023-03-24T08:58:29.271Z,3.05
2023-03-24T09:00:59.344Z,2.72
2023-03-24T09:03:29.530Z,3.40
2023-03-24T09:06:02.177Z,3.63
2023-03-24T09:08:32.242Z,3.13
2023-03-24T09:11:02.655Z,3.78
2023-03-24T09:13:32.827Z,3.17
2023-03-24T09:16:06.185Z,4.28
2023-03-24T09:18:37.425Z,3.58
2023-03-24T09:21:10.989Z,2.53
2023-03-24T09:23:41.096Z,3.38
2023-03-24T09:26:11.267Z,3.25
2023-03-24T09:28:41.429Z,3.78
2023-03-24T09:31:11.699Z,3.47
2023-03-24T09:33:41.830Z,2.85
2023-03-24T09:36:14.906Z,3.55
2023-03-24T09:38:45.065Z,2.95
2023-03-24T09:41:21.228Z,4.22
2023-03-24T09:43:56.949Z,2.72
2023-03-24T09:46:34.420Z,4.28
2023-03-24T09:49:05.285Z,4.35
2023-03-24T09:51:44.002Z,4.70
2023-03-24T09:54:23.905Z,3.67
2023-03-24T09:56:54.776Z,3.03
2023-03-24T09:59:36.030Z,3.53
2023-03-24T10:02:13.954Z,3.83
2023-03-24T10:04:43.969Z,3.80
2023-03-24T10:07:23.107Z,2.72
2023-03-24T10:09:59.980Z,3.85
2023-03-24T10:12:39.239Z,3.53
2023-03-24T10:15:37.211Z,3.25
2023-03-24T10:18:29.815Z,3.28
2023-03-24T10:21:06.618Z,2.20
2023-03-24T10:23:43.929Z,3.35
2023-03-24T10:26:29.702Z,2.17
2023-03-24T10:29:17.390Z,1.92
2023-03-24T10:31:54.762Z,3.45
2023-03-24T10:34:30.987Z,2.17
2023-03-24T10:37:03.640Z,2.60
2023-03-24T10:39:44.245Z,2.58
2023-03-24T10:42:22.102Z,2.70
2023-03-24T10:44:54.411Z,3.40
2023-03-24T10:47:32.515Z,3.33
2023-03-24T10:50:12.583Z,3.20
2023-03-24T10:52:49.069Z,2.10
2023-03-24T10:58:00.495Z,3.00
2023-03-24T11:00:32.647Z,3.65
2023-03-24T11:03:08.426Z,1.98
2023-03-24T11:05:42.073Z,2.83
2023-03-24T11:08:28.901Z,1.75
2023-03-24T11:11:02.244Z,2.85
2023-03-24T11:13:35.314Z,3.08
2023-03-24T11:16:14.992Z,2.55
2023-03-24T11:19:00.305Z,2.50
2023-03-24T11:21:32.149Z,2.53
2023-03-24T11:24:04.950Z,2.63
2023-03-24T11:26:40.000Z,2.60
2023-03-24T11:29:17.030Z,1.98
2023-03-24T11:31:56.741Z,2.22
2023-03-24T11:34:34.632Z,2.83
2023-03-24T11:37:08.425Z,1.73
2023-03-24T11:39:38.851Z,1.17
2023-03-24T11:42:18.773Z,1.55
2023-03-24T11:44:52.816Z,2.38
2023-03-24T11:47:32.693Z,1.98
2023-03-24T11:50:21.008Z,1.90
2023-03-24T11:52:56.013Z,1.70
2023-03-24T11:55:39.191Z,1.92
2023-03-24T11:58:21.709Z,1.90
2023-03-24T12:00:58.964Z,1.80
2023-03-24T12:03:56.096Z,2.30
2023-03-24T12:06:50.174Z,1.10
2023-03-24T12:09:32.584Z,1.73
2023-03-24T12:12:28.407Z,2.10
2023-03-24T12:15:30.957Z,1.63
2023-03-24T12:18:15.606Z,2.13
2023-03-24T12:20:57.174Z,1.25
2023-03-24T12:23:37.982Z,1.95
2023-03-24T12:26:23.109Z,2.13
2023-03-24T12:29:34.261Z,2.28
2023-03-24T12:32:23.670Z,2.10
2023-03-24T12:35:24.263Z,1.52
2023-03-24T12:38:10.748Z,1.58
2023-03-24T12:41:24.515Z,2.25
2023-03-24T12:44:17.533Z,2.33
2023-03-24T12:46:57.432Z,1.77
2023-03-24T12:50:07.046Z,1.98
2023-03-24T12:55:42.428Z,2.45
2023-03-24T12:58:20.120Z,2.00
2023-03-24T13:01:02.506Z,2.90
2023-03-24T13:03:41.633Z,1.52
2023-03-24T13:06:23.828Z,2.20
2023-03-24T13:09:15.728Z,3.03
2023-03-24T13:11:56.664Z,3.15
2023-03-24T13:14:33.253Z,3.08
2023-03-24T13:17:12.001Z,3.28
2023-03-24T13:19:43.376Z,2.72
2023-03-24T13:22:21.448Z,3.15
2023-03-24T13:24:52.086Z,2.20
2023-03-24T13:27:27.401Z,2.67
2023-03-24T13:30:15.008Z,1.73
2023-03-24T13:32:50.066Z,2.88
2023-03-24T13:35:52.818Z,2.63
2023-03-24T13:38:36.783Z,2.78
2023-03-24T13:41:09.530Z,2.88
2023-03-24T13:43:39.895Z,2.35
2023-03-24T13:46:16.306Z,3.00
2023-03-24T13:48:49.785Z,3.28
2023-03-24T13:51:23.371Z,2.97
2023-03-24T13:54:00.224Z,2.42
2023-03-24T13:56:37.626Z,2.78
2023-03-24T13:59:30.572Z,3.03
2023-03-24T14:02:42.783Z,3.65
2023-03-24T14:05:15.051Z,4.00
2023-03-24T14:07:50.598Z,3.95
2023-03-24T14:10:52.073Z,4.40
2023-03-24T14:13:39.009Z,4.93
2023-03-24T14:16:45.793Z,3.97
2023-03-24T14:19:29.105Z,5.18
2023-03-24T14:22:14.281Z,4.65
2023-03-24T14:24:46.958Z,4.32
2023-03-24T14:27:41.202Z,3.67
2023-03-24T14:30:23.969Z,3.53
2023-03-24T14:32:56.948Z,3.08
2023-03-24T14:35:37.187Z,3.17
2023-03-24T14:38:24.187Z,2.47
2023-03-24T14:41:00.023Z,1.80
2023-03-24T14:44:00.363Z,2.10
2023-03-24T14:46:48.230Z,1.98
2023-03-24T14:49:26.643Z,1.85
2023-03-24T14:52:03.889Z,1.88
2023-03-24T14:54:42.201Z,2.70
2023-03-24T14:57:18.197Z,2.60
2023-03-24T14:59:58.813Z,2.08
2023-03-24T15:02:36.232Z,2.30
2023-03-24T15:05:32.787Z,1.95
2023-03-24T15:08:16.906Z,2.20
2023-03-24T15:10:52.649Z,2.40
2023-03-24T15:13:36.604Z,4.05
2023-03-24T15:16:20.847Z,3.70
2023-03-24T15:19:01.450Z,2.45
2023-03-24T15:21:37.312Z,2.00
2023-03-24T15:24:32.173Z,2.50
2023-03-24T15:27:29.308Z,2.08
2023-03-24T15:30:02.057Z,1.65
2023-03-24T15:32:39.118Z,1.83
2023-03-24T15:35:18.649Z,1.77
2023-03-24T15:37:53.245Z,2.70
2023-03-24T15:43:22.537Z,4.70
2023-03-24T15:46:08.820Z,2.78
2023-03-24T15:48:45.014Z,1.77
2023-03-24T15:51:15.646Z,3.78
2023-03-24T15:53:49.493Z,1.40
2023-03-24T15:56:23.596Z,2.70
2023-03-24T15:58:59.602Z,2.45
2023-03-24T16:01:36.456Z,1.80
2023-03-24T16:04:17.062Z,1.48
2023-03-24T16:06:53.794Z,1.75
2023-03-24T16:09:27.668Z,1.52
2023-03-24T16:11:58.018Z,2.00
2023-03-24T16:14:32.637Z,1.50
2023-03-24T16:19:37.993Z,2.20
2023-03-24T16:22:14.366Z,1.67
2023-03-24T16:24:44.366Z,1.80
2023-03-24T16:27:15.133Z,1.52
2023-03-24T16:29:45.114Z,1.50
2023-03-24T16:32:15.093Z,1.50
2023-03-24T16:34:47.922Z,1.67
2023-03-24T16:37:17.978Z,1.60
2023-03-24T16:39:47.945Z,2.13
2023-03-24T16:42:18.137Z,2.00
2023-03-24T16:44:48.080Z,2.30
2023-03-24T16:47:18.105Z,2.42
2023-03-24T16:49:50.669Z,1.58
2023-03-24T16:52:20.802Z,2.40
2023-03-24T16:54:51.113Z,2.40
2023-03-24T16:57:21.222Z,2.40
2023-03-24T16:59:51.164Z,2.70
2023-03-24T17:02:21.737Z,2.47
2023-03-24T17:04:54.342Z,3.42
2023-03-24T17:07:24.341Z,3.10
2023-03-24T17:09:54.425Z,3.35
2023-03-24T17:12:24.445Z,3.63
2023-03-24T17:14:54.409Z,3.60
2023-03-24T17:17:24.419Z,3.03
2023-03-24T17:19:57.632Z,3.13
2023-03-24T17:22:28.159Z,3.03
2023-03-24T17:24:58.454Z,7.65
2023-03-24T17:27:28.516Z,16.98
2023-03-24T17:29:58.495Z,14.65
2023-03-24T17:32:32.336Z,6.07
2023-03-24T17:35:05.498Z,6.90
2023-03-24T17:37:35.478Z,9.75
2023-03-24T17:40:08.875Z,6.68
2023-03-24T17:42:39.784Z,17.15
2023-03-24T17:45:12.945Z,10.93
2023-03-24T17:47:43.587Z,11.23
2023-03-24T17:50:16.722Z,11.70
2023-03-24T17:52:50.050Z,7.80
2023-03-24T17:55:21.422Z,12.60
2023-03-24T17:57:52.098Z,12.85
2023-03-24T18:00:23.215Z,14.88
2023-03-24T18:02:53.306Z,12.02
2023-03-24T18:05:25.995Z,8.98
2023-03-24T18:07:56.292Z,7.43
2023-03-24T18:10:26.480Z,10.52
2023-03-24T18:12:57.734Z,17.00
2023-03-24T18:15:27.724Z,8.60
2023-03-24T18:17:57.913Z,5.78
2023-03-24T18:20:32.212Z,4.90
2023-03-24T18:23:02.340Z,5.60
2023-03-24T18:25:32.527Z,4.85
2023-03-24T18:28:02.842Z,5.57
2023-03-24T18:30:33.497Z,6.60
2023-03-24T18:33:03.547Z,3.95
2023-03-24T18:35:36.393Z,6.00
2023-03-24T18:38:06.871Z,4.00
2023-03-24T18:40:36.865Z,4.00
2023-03-24T18:43:07.006Z,4.35
2023-03-24T18:45:37.057Z,4.13
2023-03-24T18:48:08.018Z,5.57
2023-03-24T18:50:42.486Z,5.72
2023-03-24T18:53:13.607Z,5.25
2023-03-24T18:55:47.218Z,4.97
2023-03-24T18:58:17.851Z,5.60
2023-03-24T19:00:52.685Z,5.35
2023-03-24T19:03:24.746Z,5.95
2023-03-24T19:05:59.141Z,5.40
2023-03-24T19:08:29.258Z,6.10
2023-03-24T19:11:00.260Z,5.13
2023-03-24T19:13:30.664Z,4.70
2023-03-24T19:16:00.675Z,4.97
2023-03-24T19:18:30.669Z,4.85
2023-03-24T19:21:03.764Z,4.53
2023-03-24T19:23:34.531Z,4.60
2023-03-24T19:26:04.677Z,4.00
2023-03-24T19:28:37.626Z,4.35
2023-03-24T19:31:11.534Z,3.85
2023-03-24T19:33:41.849Z,4.43
2023-03-24T19:36:15.704Z,3.70
2023-03-24T19:38:46.058Z,4.70
2023-03-24T19:41:17.636Z,4.30
2023-03-24T19:43:47.638Z,4.60
2023-03-24T19:46:21.117Z,4.57
2023-03-24T19:48:51.578Z,6.72
2023-03-24T19:51:24.377Z,5.25
2023-03-24T19:53:54.341Z,6.00
2023-03-24T19:56:24.333Z,6.63
2023-03-24T19:58:54.316Z,8.68
2023-03-24T20:01:24.422Z,9.15
2023-03-24T20:03:54.638Z,6.72
2023-03-24T20:06:27.244Z,6.30
2023-03-24T20:08:57.233Z,7.53
2023-03-24T20:11:27.273Z,6.70
2023-03-24T20:13:57.268Z,7.60
2023-03-24T20:16:27.258Z,6.72
2023-03-24T20:18:57.293Z,7.25
2023-03-24T20:21:30.453Z,5.70
2023-03-24T20:24:00.699Z,6.15
2023-03-24T20:26:31.548Z,6.13
2023-03-24T20:29:01.591Z,6.07
2023-03-24T20:31:32.164Z,5.70
2023-03-24T20:34:02.497Z,5.82
2023-03-24T20:36:36.757Z,6.03
2023-03-24T20:39:07.938Z,5.35
2023-03-24T20:41:37.963Z,5.10
2023-03-24T20:44:08.542Z,5.60
2023-03-24T20:46:38.571Z,6.18
2023-03-24T20:49:09.768Z,5.13
2023-03-24T20:51:42.367Z,5.20
2023-03-24T20:54:12.425Z,5.10
2023-03-24T20:56:42.845Z,5.30
2023-03-24T20:59:13.980Z,5.15
2023-03-24T21:01:43.985Z,5.57
2023-03-24T21:04:14.014Z,4.30
2023-03-24T21:06:47.198Z,4.28
2023-03-24T21:09:17.264Z,6.90
2023-03-24T21:11:47.233Z,8.23
2023-03-24T21:14:17.229Z,10.65
2023-03-24T21:16:47.608Z,8.73
2023-03-24T21:19:18.795Z,11.35
2023-03-24T21:21:51.842Z,8.25
2023-03-24T21:24:21.904Z,7.75
2023-03-24T21:26:54.023Z,6.47
2023-03-24T21:29:24.004Z,5.70
2023-03-24T21:31:54.304Z,4.57
2023-03-24T21:34:24.307Z,3.90
2023-03-24T21:36:56.839Z,4.18
2023-03-24T21:39:26.921Z,4.90
2023-03-24T21:41:56.858Z,5.45
2023-03-24T21:44:26.935Z,5.38
2023-03-24T21:46:56.924Z,4.78
2023-03-24T21:49:27.049Z,4.28
2023-03-24T21:51:59.635Z,4.82
2023-03-24T21:54:30.868Z,5.47
2023-03-24T21:57:00.862Z,5.55
2023-03-24T21:59:31.955Z,4.88
2023-03-24T22:02:02.900Z,4.72
2023-03-24T22:04:38.268Z,4.68
2023-03-24T22:07:11.249Z,4.80
2023-03-24T22:09:43.316Z,4.45
2023-03-24T22:12:13.475Z,4.70
2023-03-24T22:14:43.529Z,4.63
2023-03-24T22:17:14.016Z,4.88
2023-03-24T22:19:44.019Z,4.72
2023-03-24T22:22:16.610Z,4.75
2023-03-24T22:24:46.627Z,5.00
2023-03-24T22:27:17.893Z,5.32
2023-03-24T22:29:47.909Z,5.30
2023-03-24T22:32:17.998Z,5.30
2023-03-24T22:34:47.996Z,5.25
2023-03-24T22:37:21.083Z,5.30
2023-03-24T22:39:51.188Z,5.72
2023-03-24T22:42:21.272Z,6.20
2023-03-24T22:44:51.300Z,6.93
2023-03-24T22:47:21.355Z,6.55
2023-03-24T22:49:51.330Z,6.13
2023-03-24T22:52:23.852Z,6.38
2023-03-24T22:54:53.848Z,6.43
2023-03-24T22:57:23.813Z,6.72
2023-03-24T22:59:53.798Z,5.53
2023-03-24T23:02:24.788Z,5.18
2023-03-24T23:04:55.203Z,5.50
2023-03-24T23:07:28.638Z,5.80
2023-03-24T23:10:00.402Z,5.65
2023-03-24T23:12:30.448Z,5.43
2023-03-24T23:15:01.188Z,6.00
2023-03-24T23:17:31.167Z,6.43
2023-03-24T23:20:01.253Z,6.20
2023-03-24T23:22:34.467Z,5.82
2023-03-24T23:25:04.438Z,5.95
2023-03-24T23:27:37.408Z,5.65
2023-03-24T23:30:10.590Z,5.18
2023-03-24T23:32:41.937Z,6.07
2023-03-24T23:35:13.824Z,6.10
2023-03-24T23:37:46.645Z,5.57
2023-03-24T23:40:19.211Z,4.95
2023-03-24T23:42:50.910Z,4.63
2023-03-24T23:45:22.813Z,4.78
2023-03-24T23:47:54.980Z,3.83
2023-03-24T23:50:26.312Z,3.97
2023-03-24T23:52:59.388Z,3.45
2023-03-24T23:55:29.549Z,2.92
2023-03-24T23:57:59.582Z,3.30
